Time;durP1;ratioP1;P1;durP2;ratioP2;P2;SDS_P1;SDS_P2;PMS_P1;PMS_P2;Temp;Humidity;BMP_temperature;BMP_pressure;BME280_temperature;BME280_humidity;BME280_pressure;Samples;Min_cycle;Max_cycle;Signal;HPM_P1;HPM_P2
2022/08/06 00:02:12;;;;;;;9.60;2.20;;;;;;;;;;5029867;28;20029;-65
2022/08/06 00:04:38;;;;;;;6.85;2.33;;;;;;;;;;5037054;28;20444;-66
2022/08/06 00:07:04;;;;;;;7.30;2.13;;;;;;;;;;5032749;28;20411;-66
2022/08/06 00:09:30;;;;;;;7.38;2.47;;;;;;;;;;5036657;28;20433;-66
2022/08/06 00:12:00;;;;;;;8.65;2.63;;;;;;;;;;5039767;28;20458;-66
2022/08/06 00:14:30;;;;;;;9.48;2.42;;;;;;;;;;5035670;28;20040;-67
2022/08/06 00:16:57;;;;;;;5.88;1.92;;;;;;;;;;5036541;28;20511;-66
2022/08/06 00:19:24;;;;;;;6.30;2.10;;;;;;;;;;5035751;28;20059;-66
2022/08/06 00:21:50;;;;;;;9.10;2.00;;;;;;;;;;5037904;28;20276;-66
2022/08/06 00:24:16;;;;;;;7.63;2.47;;;;;;;;;;5031779;28;20037;-65
2022/08/06 00:26:43;;;;;;;8.15;2.40;;;;;;;;;;5031648;28;20024;-65
2022/08/06 00:29:09;;;;;;;7.28;2.20;;;;;;;;;;5029419;28;20037;-66
2022/08/06 00:31:35;;;;;;;9.55;2.28;;;;;;;;;;5036139;28;20140;-65
2022/08/06 00:34:03;;;;;;;6.60;2.22;;;;;;;;;;5041607;28;20028;-65
2022/08/06 00:36:30;;;;;;;7.40;2.40;;;;;;;;;;5035811;28;20027;-65
2022/08/06 00:38:57;;;;;;;7.22;2.22;;;;;;;;;;5036794;28;20081;-65
2022/08/06 00:41:23;;;;;;;6.55;2.75;;;;;;;;;;5034288;28;20046;-65
2022/08/06 00:43:50;;;;;;;7.63;2.38;;;;;;;;;;5035042;28;20036;-65
2022/08/06 00:46:16;;;;;;;6.88;2.50;;;;;;;;;;5033965;28;20112;-65
2022/08/06 00:48:42;;;;;;;8.93;2.65;;;;;;;;;;5035128;28;20545;-66
2022/08/06 00:51:08;;;;;;;8.90;2.30;;;;;;;;;;5032773;28;20053;-66
2022/08/06 00:53:36;;;;;;;8.48;2.40;;;;;;;;;;5036258;28;20097;-66
2022/08/06 00:56:03;;;;;;;8.40;2.45;;;;;;;;;;5038254;28;20021;-66
2022/08/06 00:58:29;;;;;;;9.70;2.40;;;;;;;;;;5040806;28;20036;-66
2022/08/06 01:00:55;;;;;;;7.03;2.30;;;;;;;;;;5041990;28;20024;-66
2022/08/06 01:03:21;;;;;;;6.75;2.38;;;;;;;;;;5039086;28;20077;-66
2022/08/06 01:05:47;;;;;;;6.72;2.30;;;;;;;;;;5039916;28;20032;-66
2022/08/06 01:08:14;;;;;;;7.25;2.28;;;;;;;;;;5034575;28;20028;-66
2022/08/06 01:10:40;;;;;;;8.20;2.13;;;;;;;;;;5037570;28;20536;-66
2022/08/06 01:13:06;;;;;;;9.07;1.98;;;;;;;;;;5038584;28;20083;-66
2022/08/06 01:15:37;;;;;;;7.00;2.10;;;;;;;;;;5041424;28;20370;-66
2022/08/06 01:18:03;;;;;;;7.05;2.50;;;;;;;;;;5034523;28;20060;-66
2022/08/06 01:20:51;;;;;;;7.43;2.20;;;;;;;;;;5036385;28;20578;-66
2022/08/06 01:23:28;;;;;;;5.95;2.55;;;;;;;;;;5038077;28;20484;-66
2022/08/06 01:26:12;;;;;;;8.73;2.47;;;;;;;;;;5041389;28;20127;-66
2022/08/06 01:28:42;;;;;;;8.75;2.50;;;;;;;;;;5039145;28;20036;-66
2022/08/06 01:31:10;;;;;;;6.18;2.20;;;;;;;;;;5034359;28;20033;-66
2022/08/06 01:33:44;;;;;;;6.32;2.20;;;;;;;;;;5037804;28;20045;-67
2022/08/06 01:36:13;;;;;;;8.25;2.20;;;;;;;;;;5052009;28;20029;-66
2022/08/06 01:38:41;;;;;;;7.15;2.00;;;;;;;;;;5036388;28;20036;-66
2022/08/06 01:41:08;;;;;;;5.63;2.00;;;;;;;;;;5034101;28;20039;-66
2022/08/06 01:43:35;;;;;;;7.60;2.30;;;;;;;;;;5040186;28;20048;-66
2022/08/06 01:46:02;;;;;;;6.00;2.25;;;;;;;;;;5037670;28;20024;-67
2022/08/06 01:48:28;;;;;;;7.43;2.45;;;;;;;;;;5037242;28;20036;-67
2022/08/06 01:50:58;;;;;;;7.85;2.25;;;;;;;;;;5036463;28;20135;-67
2022/08/06 01:53:29;;;;;;;9.85;2.30;;;;;;;;;;5037513;28;20127;-67
2022/08/06 01:55:57;;;;;;;7.30;2.03;;;;;;;;;;5039876;28;20059;-69
2022/08/06 01:58:26;;;;;;;9.13;1.95;;;;;;;;;;5037496;28;20032;-66
2022/08/06 02:00:53;;;;;;;5.40;2.05;;;;;;;;;;5040038;28;20366;-66
2022/08/06 02:03:23;;;;;;;5.60;1.85;;;;;;;;;;5036483;28;20032;-66
2022/08/06 02:05:52;;;;;;;10.38;2.40;;;;;;;;;;5041822;28;20028;-67
2022/08/06 02:08:18;;;;;;;7.65;2.20;;;;;;;;;;5037123;28;20144;-66
2022/08/06 02:10:45;;;;;;;9.93;2.30;;;;;;;;;;5037775;28;20036;-66
2022/08/06 02:13:13;;;;;;;6.05;2.20;;;;;;;;;;5030944;28;21435;-66
2022/08/06 02:15:39;;;;;;;7.57;2.42;;;;;;;;;;5051150;28;20526;-66
2022/08/06 02:18:07;;;;;;;6.55;1.90;;;;;;;;;;5033128;28;21047;-67
2022/08/06 02:20:35;;;;;;;7.07;2.20;;;;;;;;;;5037031;28;20090;-66
2022/08/06 02:23:03;;;;;;;5.72;2.00;;;;;;;;;;5050962;28;20546;-65
2022/08/06 02:25:30;;;;;;;6.57;1.98;;;;;;;;;;5036823;28;20469;-64
2022/08/06 02:27:58;;;;;;;6.38;2.20;;;;;;;;;;5042552;28;20577;-64
2022/08/06 02:30:25;;;;;;;6.18;2.28;;;;;;;;;;5039455;28;20107;-65
2022/08/06 02:32:51;;;;;;;6.72;1.92;;;;;;;;;;5039815;28;20090;-65
2022/08/06 02:35:17;;;;;;;6.82;1.95;;;;;;;;;;5038340;28;20029;-65
2022/08/06 02:37:54;;;;;;;7.80;2.20;;;;;;;;;;5035529;28;20039;-65
2022/08/06 02:40:23;;;;;;;7.07;1.92;;;;;;;;;;5036513;28;20782;-65
2022/08/06 02:42:53;;;;;;;6.15;2.00;;;;;;;;;;5039073;28;20130;-66
2022/08/06 02:45:22;;;;;;;6.35;2.00;;;;;;;;;;5034566;28;20036;-65
2022/08/06 02:47:51;;;;;;;5.28;1.80;;;;;;;;;;5040171;28;20044;-65
2022/08/06 02:50:18;;;;;;;8.45;2.00;;;;;;;;;;5035126;28;20055;-66
2022/08/06 02:52:58;;;;;;;7.00;1.98;;;;;;;;;;5038858;28;20055;-65
2022/08/06 02:55:26;;;;;;;8.55;1.80;;;;;;;;;;5038745;28;20020;-65
2022/08/06 02:57:57;;;;;;;4.78;1.60;;;;;;;;;;5038380;28;20475;-66
2022/08/06 03:00:24;;;;;;;4.72;1.83;;;;;;;;;;5034700;28;20373;-66
2022/08/06 03:02:54;;;;;;;5.75;1.73;;;;;;;;;;5041171;28;20042;-66
2022/08/06 03:05:21;;;;;;;4.85;1.77;;;;;;;;;;5033167;28;20728;-66
2022/08/06 03:07:47;;;;;;;5.13;1.58;;;;;;;;;;5037110;28;20032;-65
2022/08/06 03:10:14;;;;;;;5.50;1.70;;;;;;;;;;5038029;28;20811;-66
2022/08/06 03:12:41;;;;;;;5.53;1.70;;;;;;;;;;5038986;28;20036;-66
2022/08/06 03:15:09;;;;;;;5.10;1.73;;;;;;;;;;5033460;28;20071;-66
2022/08/06 03:17:36;;;;;;;6.65;1.60;;;;;;;;;;5042684;28;20032;-66
2022/08/06 03:20:03;;;;;;;5.97;1.73;;;;;;;;;;5037356;28;20284;-66
2022/08/06 03:22:31;;;;;;;5.50;1.70;;;;;;;;;;5038332;28;20589;-67
2022/08/06 03:24:58;;;;;;;5.97;1.70;;;;;;;;;;5039500;28;20032;-66
2022/08/06 03:27:25;;;;;;;4.50;1.50;;;;;;;;;;5036393;28;20080;-67
2022/08/06 03:29:52;;;;;;;6.03;1.70;;;;;;;;;;5041150;28;20029;-66
2022/08/06 03:32:18;;;;;;;7.10;1.60;;;;;;;;;;5037747;28;20291;-65
2022/08/06 03:34:45;;;;;;;4.78;1.80;;;;;;;;;;5043182;28;20084;-65
2022/08/06 03:37:12;;;;;;;4.35;1.63;;;;;;;;;;5033362;28;20336;-65
2022/08/06 03:39:42;;;;;;;7.90;2.00;;;;;;;;;;5039142;28;20020;-65
2022/08/06 03:42:08;;;;;;;5.43;2.15;;;;;;;;;;5039847;28;20069;-67
2022/08/06 03:44:34;;;;;;;6.32;2.00;;;;;;;;;;5039406;28;20978;-65
2022/08/06 03:47:36;;;;;;;4.90;1.90;;;;;;;;;;5040463;28;20078;-66
2022/08/06 03:50:08;;;;;;;6.40;2.17;;;;;;;;;;4995321;28;20092;-65
2022/08/06 03:52:40;;;;;;;7.68;1.90;;;;;;;;;;5000400;28;20046;-65
2022/08/06 03:55:07;;;;;;;5.65;1.80;;;;;;;;;;5000950;28;20032;-65
2022/08/06 03:57:37;;;;;;;6.93;2.08;;;;;;;;;;5003356;28;20514;-65
2022/08/06 04:00:04;;;;;;;5.97;1.75;;;;;;;;;;5001295;28;20040;-65
2022/08/06 04:02:32;;;;;;;5.18;1.77;;;;;;;;;;4998069;28;20045;-65
2022/08/06 04:04:59;;;;;;;5.97;1.75;;;;;;;;;;4997596;28;20142;-65
2022/08/06 04:07:26;;;;;;;5.13;1.80;;;;;;;;;;5001476;28;20972;-65
2022/08/06 04:09:52;;;;;;;6.80;1.70;;;;;;;;;;4999666;28;20083;-65
2022/08/06 04:12:19;;;;;;;4.60;1.80;;;;;;;;;;5002110;28;20523;-67
2022/08/06 04:14:45;;;;;;;4.57;1.60;;;;;;;;;;5002181;28;20570;-67
2022/08/06 04:17:12;;;;;;;5.57;1.83;;;;;;;;;;4993772;28;20045;-64
2022/08/06 04:19:38;;;;;;;5.90;1.95;;;;;;;;;;4986406;28;20033;-65
2022/08/06 04:22:04;;;;;;;6.90;1.98;;;;;;;;;;4999160;28;20391;-64
2022/08/06 04:24:31;;;;;;;5.97;2.00;;;;;;;;;;5031254;28;20052;-64
2022/08/06 04:26:58;;;;;;;7.63;2.00;;;;;;;;;;5038507;28;20075;-65
2022/08/06 04:29:24;;;;;;;8.50;2.10;;;;;;;;;;5035473;28;20041;-65
2022/08/06 04:31:52;;;;;;;5.18;1.67;;;;;;;;;;5039395;28;20413;-64
2022/08/06 04:34:19;;;;;;;5.72;1.85;;;;;;;;;;5037005;28;20083;-65
2022/08/06 04:36:45;;;;;;;6.25;1.50;;;;;;;;;;5040784;28;20040;-65
2022/08/06 04:39:12;;;;;;;8.00;2.03;;;;;;;;;;5036386;28;20033;-65
2022/08/06 04:41:38;;;;;;;8.85;2.40;;;;;;;;;;5044600;28;20481;-65
2022/08/06 04:44:07;;;;;;;8.52;2.00;;;;;;;;;;5044736;28;20036;-65
2022/08/06 04:46:33;;;;;;;7.28;2.20;;;;;;;;;;5046808;28;20444;-65
2022/08/06 04:48:59;;;;;;;11.25;2.28;;;;;;;;;;5043397;28;20031;-67
2022/08/06 04:51:25;;;;;;;9.35;2.53;;;;;;;;;;5039678;28;20374;-65
2022/08/06 04:53:51;;;;;;;12.15;2.67;;;;;;;;;;5048581;28;20491;-65
2022/08/06 04:56:17;;;;;;;11.35;2.65;;;;;;;;;;5035496;28;20382;-65
2022/08/06 04:58:43;;;;;;;10.00;2.35;;;;;;;;;;5043274;28;20024;-65
2022/08/06 05:01:09;;;;;;;11.45;2.58;;;;;;;;;;5040336;28;20252;-65
2022/08/06 05:03:36;;;;;;;8.38;2.35;;;;;;;;;;5039761;28;20032;-65
2022/08/06 05:06:06;;;;;;;11.93;2.45;;;;;;;;;;5040191;28;20028;-65
2022/08/06 05:08:32;;;;;;;13.50;3.03;;;;;;;;;;5041152;28;20039;-65
2022/08/06 05:11:12;;;;;;;14.07;3.10;;;;;;;;;;5041553;28;20025;-67
2022/08/06 05:13:39;;;;;;;15.20;3.08;;;;;;;;;;5040366;28;20028;-65
2022/08/06 05:16:08;;;;;;;10.82;2.30;;;;;;;;;;5037023;28;20023;-65
2022/08/06 05:18:37;;;;;;;13.02;2.70;;;;;;;;;;5039047;28;20028;-65
2022/08/06 05:21:03;;;;;;;9.80;2.67;;;;;;;;;;5037671;28;20033;-66
2022/08/06 05:23:39;;;;;;;8.35;2.13;;;;;;;;;;5037951;28;20032;-65
2022/08/06 05:26:06;;;;;;;9.32;2.30;;;;;;;;;;5038813;28;20233;-65
2022/08/06 05:28:33;;;;;;;8.45;2.67;;;;;;;;;;5042517;28;20431;-65
2022/08/06 05:30:59;;;;;;;10.15;2.28;;;;;;;;;;5042083;28;20029;-68
2022/08/06 05:33:30;;;;;;;9.63;2.75;;;;;;;;;;5041417;28;20028;-65
2022/08/06 05:35:57;;;;;;;13.40;2.70;;;;;;;;;;5053944;28;20052;-65
2022/08/06 05:38:26;;;;;;;10.77;3.03;;;;;;;;;;5037025;28;20033;-65
2022/08/06 05:40:52;;;;;;;13.73;4.05;;;;;;;;;;5037496;28;20028;-65
2022/08/06 05:43:18;;;;;;;13.38;3.08;;;;;;;;;;5037880;28;20160;-65
2022/08/06 05:45:45;;;;;;;11.93;2.97;;;;;;;;;;5038327;28;20710;-65
2022/08/06 05:48:12;;;;;;;9.35;2.78;;;;;;;;;;5038419;28;20105;-65
2022/08/06 05:50:40;;;;;;;13.23;2.97;;;;;;;;;;5040641;28;20155;-65
2022/08/06 05:53:16;;;;;;;10.18;2.97;;;;;;;;;;5037362;28;20029;-65
2022/08/06 05:55:56;;;;;;;12.98;2.50;;;;;;;;;;5040546;28;20123;-65
2022/08/06 05:58:32;;;;;;;9.27;2.25;;;;;;;;;;5038181;28;20029;-65
2022/08/06 06:01:00;;;;;;;10.57;2.50;;;;;;;;;;5056895;28;20032;-65
2022/08/06 06:03:27;;;;;;;10.85;2.63;;;;;;;;;;5039411;28;20040;-66
2022/08/06 06:05:54;;;;;;;10.32;2.17;;;;;;;;;;5038090;28;20023;-65
2022/08/06 06:08:21;;;;;;;9.93;2.20;;;;;;;;;;5037296;28;20036;-65
2022/08/06 06:10:47;;;;;;;10.40;2.50;;;;;;;;;;5040149;28;20021;-65
2022/08/06 06:13:15;;;;;;;10.85;2.55;;;;;;;;;;5045938;28;20184;-65
2022/08/06 06:16:01;;;;;;;14.88;2.80;;;;;;;;;;5037688;28;21231;-66
2022/08/06 06:19:00;;;;;;;17.38;3.08;;;;;;;;;;5037031;28;20040;-65
2022/08/06 06:21:49;;;;;;;9.30;2.55;;;;;;;;;;4972649;28;20164;-65
2022/08/06 06:24:23;;;;;;;9.90;2.17;;;;;;;;;;4967980;28;20038;-65
2022/08/06 06:26:54;;;;;;;12.80;2.67;;;;;;;;;;4965597;28;20084;-65
2022/08/06 06:29:45;;;;;;;13.93;2.75;;;;;;;;;;4978587;28;20037;-65
2022/08/06 06:32:16;;;;;;;10.43;2.85;;;;;;;;;;4957767;28;20057;-65
2022/08/06 06:34:48;;;;;;;13.55;3.08;;;;;;;;;;4978842;28;20406;-66
2022/08/06 06:37:19;;;;;;;15.27;3.28;;;;;;;;;;4958084;28;20038;-65
2022/08/06 06:40:06;;;;;;;18.15;3.30;;;;;;;;;;4980465;28;20485;-65
2022/08/06 06:42:35;;;;;;;16.90;2.83;;;;;;;;;;4978861;28;20648;-66
2022/08/06 06:45:01;;;;;;;13.18;3.00;;;;;;;;;;4979563;28;20071;-66
2022/08/06 06:47:34;;;;;;;11.57;3.15;;;;;;;;;;4973345;28;20045;-66
2022/08/06 06:50:11;;;;;;;10.23;2.70;;;;;;;;;;4964647;28;20077;-65
2022/08/06 06:52:42;;;;;;;7.50;2.53;;;;;;;;;;4963235;28;20052;-66
2022/08/06 06:55:25;;;;;;;13.20;2.83;;;;;;;;;;4973651;28;20436;-65
2022/08/06 06:58:15;;;;;;;11.98;2.88;;;;;;;;;;5022826;28;20068;-65
2022/08/06 07:00:42;;;;;;;11.63;2.55;;;;;;;;;;5032956;28;20490;-65
2022/08/06 07:03:09;;;;;;;10.52;2.70;;;;;;;;;;5034872;28;20031;-65
2022/08/06 07:05:36;;;;;;;14.52;2.47;;;;;;;;;;5040547;28;20028;-65
2022/08/06 07:08:03;;;;;;;7.28;2.42;;;;;;;;;;5040806;28;20379;-66
2022/08/06 07:10:31;;;;;;;9.52;2.25;;;;;;;;;;5039853;28;20530;-65
2022/08/06 07:12:59;;;;;;;7.28;2.20;;;;;;;;;;5038865;28;20616;-66
2022/08/06 07:15:26;;;;;;;7.03;2.15;;;;;;;;;;5036566;28;21292;-67
2022/08/06 07:17:53;;;;;;;10.68;2.65;;;;;;;;;;5033032;28;20275;-66
2022/08/06 07:20:24;;;;;;;8.13;2.22;;;;;;;;;;5036864;28;20032;-65
2022/08/06 07:22:51;;;;;;;7.85;2.30;;;;;;;;;;5041389;28;20033;-65
2022/08/06 07:25:17;;;;;;;7.28;2.20;;;;;;;;;;5034755;28;20617;-66
2022/08/06 07:27:46;;;;;;;9.65;2.55;;;;;;;;;;5037064;28;20321;-66
2022/08/06 07:30:16;;;;;;;8.95;2.80;;;;;;;;;;5049173;28;20035;-66
2022/08/06 07:32:43;;;;;;;9.23;2.83;;;;;;;;;;5038734;28;20075;-66
2022/08/06 07:35:10;;;;;;;9.90;2.10;;;;;;;;;;5039601;28;20037;-66
2022/08/06 07:37:37;;;;;;;8.38;2.30;;;;;;;;;;5040215;28;20754;-67
2022/08/06 07:40:05;;;;;;;7.97;2.20;;;;;;;;;;5034110;28;20028;-66
2022/08/06 07:42:31;;;;;;;7.97;2.05;;;;;;;;;;5039489;28;20056;-66
2022/08/06 07:44:59;;;;;;;8.38;2.58;;;;;;;;;;5038862;28;20477;-65
2022/08/06 07:47:28;;;;;;;8.85;2.72;;;;;;;;;;5036239;28;20125;-67
2022/08/06 07:49:56;;;;;;;9.07;2.50;;;;;;;;;;5057445;28;20378;-66
2022/08/06 07:52:22;;;;;;;7.30;2.30;;;;;;;;;;5036467;28;20028;-65
2022/08/06 07:54:49;;;;;;;8.85;2.15;;;;;;;;;;5041748;28;20087;-66
2022/08/06 07:57:15;;;;;;;7.35;2.20;;;;;;;;;;5041191;28;20037;-65
2022/08/06 07:59:42;;;;;;;7.97;2.08;;;;;;;;;;5037171;28;20497;-66
2022/08/06 08:02:09;;;;;;;5.07;1.80;;;;;;;;;;5034246;28;20028;-66
2022/08/06 08:07:24;;;;;;;5.18;1.60;;;;;;;;;;5040997;28;20300;-65
2022/08/06 08:09:51;;;;;;;6.30;1.80;;;;;;;;;;5057569;28;20065;-66
2022/08/06 08:12:17;;;;;;;8.73;1.80;;;;;;;;;;5040259;28;20039;-66
2022/08/06 08:14:45;;;;;;;10.50;2.20;;;;;;;;;;5040435;28;20450;-66
2022/08/06 08:17:11;;;;;;;5.93;1.70;;;;;;;;;;5037677;28;20477;-66
2022/08/06 08:19:37;;;;;;;10.52;2.50;;;;;;;;;;5038065;28;20036;-66
2022/08/06 08:22:11;;;;;;;5.43;1.65;;;;;;;;;;5037749;28;20043;-66
2022/08/06 08:24:38;;;;;;;8.80;2.25;;;;;;;;;;5040262;28;20959;-66
2022/08/06 08:27:08;;;;;;;12.95;2.40;;;;;;;;;;5043222;28;20059;-66
2022/08/06 08:29:34;;;;;;;6.93;2.10;;;;;;;;;;5042441;28;20474;-65
2022/08/06 08:32:00;;;;;;;9.27;2.40;;;;;;;;;;5041760;28;20032;-65
2022/08/06 08:34:27;;;;;;;6.53;1.90;;;;;;;;;;5041164;28;21101;-66
2022/08/06 08:36:53;;;;;;;5.43;1.70;;;;;;;;;;5045708;28;20327;-67
2022/08/06 08:39:19;;;;;;;6.25;1.80;;;;;;;;;;5038994;28;20902;-65
2022/08/06 08:41:45;;;;;;;8.18;1.75;;;;;;;;;;5039438;28;20028;-65
2022/08/06 08:44:11;;;;;;;5.72;1.67;;;;;;;;;;5036343;28;20493;-66
2022/08/06 08:46:39;;;;;;;6.80;1.75;;;;;;;;;;5042349;28;20137;-65
2022/08/06 08:49:07;;;;;;;8.18;2.17;;;;;;;;;;5041395;28;20058;-67
2022/08/06 08:51:34;;;;;;;7.25;2.03;;;;;;;;;;5042954;28;20048;-66
2022/08/06 08:54:02;;;;;;;5.88;1.70;;;;;;;;;;5044033;28;20528;-66
2022/08/06 08:56:28;;;;;;;5.40;1.70;;;;;;;;;;5039953;28;20340;-66
2022/08/06 08:58:54;;;;;;;8.82;2.03;;;;;;;;;;5040933;28;20085;-66
2022/08/06 09:01:20;;;;;;;9.95;1.83;;;;;;;;;;5038590;28;20028;-66
2022/08/06 09:03:47;;;;;;;7.07;1.83;;;;;;;;;;5042501;28;20569;-66
2022/08/06 09:06:13;;;;;;;5.10;1.70;;;;;;;;;;5039714;28;20529;-70
2022/08/06 09:08:40;;;;;;;8.50;2.00;;;;;;;;;;5043486;28;20056;-66
2022/08/06 09:11:06;;;;;;;6.82;1.80;;;;;;;;;;5037361;28;20111;-67
2022/08/06 09:13:32;;;;;;;8.50;1.98;;;;;;;;;;5038092;28;20031;-66
2022/08/06 09:15:59;;;;;;;7.70;1.70;;;;;;;;;;5046374;28;20032;-67
2022/08/06 09:18:26;;;;;;;8.02;1.75;;;;;;;;;;5043068;28;20111;-66
2022/08/06 09:20:53;;;;;;;8.05;1.90;;;;;;;;;;5046195;28;20137;-66
2022/08/06 09:23:19;;;;;;;6.00;1.60;;;;;;;;;;5037977;28;20060;-66
2022/08/06 09:25:47;;;;;;;8.20;1.90;;;;;;;;;;5044160;28;20036;-66
2022/08/06 09:28:28;;;;;;;9.93;2.50;;;;;;;;;;5042308;28;20032;-67
2022/08/06 09:31:18;;;;;;;6.85;2.00;;;;;;;;;;5039730;28;20037;-66
2022/08/06 09:34:04;;;;;;;8.75;1.80;;;;;;;;;;5032170;28;20887;-68
2022/08/06 09:36:41;;;;;;;7.43;1.95;;;;;;;;;;5042018;28;20036;-66
2022/08/06 09:39:08;;;;;;;9.20;2.15;;;;;;;;;;5040061;28;20456;-66
2022/08/06 09:41:37;;;;;;;5.97;1.50;;;;;;;;;;5041901;28;20044;-66
2022/08/06 09:44:11;;;;;;;8.25;2.08;;;;;;;;;;5041163;28;20044;-66
2022/08/06 09:46:44;;;;;;;6.68;1.90;;;;;;;;;;5043152;28;20059;-66
2022/08/06 09:49:12;;;;;;;6.68;1.98;;;;;;;;;;5038969;28;20028;-66
2022/08/06 09:51:38;;;;;;;6.25;1.80;;;;;;;;;;5042928;28;20479;-65
2022/08/06 09:54:06;;;;;;;8.90;1.80;;;;;;;;;;5048896;28;20077;-65
2022/08/06 09:56:32;;;;;;;7.88;1.70;;;;;;;;;;5038685;28;20035;-66
2022/08/06 09:58:59;;;;;;;6.13;1.80;;;;;;;;;;5047579;28;20025;-65
2022/08/06 10:01:25;;;;;;;6.22;1.85;;;;;;;;;;5042755;28;22475;-67
2022/08/06 10:03:53;;;;;;;8.02;1.98;;;;;;;;;;5047494;28;20322;-66
2022/08/06 10:06:22;;;;;;;5.95;1.85;;;;;;;;;;5045428;28;20040;-66
2022/08/06 10:08:49;;;;;;;7.40;1.70;;;;;;;;;;5045753;28;20028;-69
2022/08/06 10:11:16;;;;;;;7.95;1.73;;;;;;;;;;5056345;28;20032;-69
2022/08/06 10:13:48;;;;;;;6.97;1.98;;;;;;;;;;5042261;28;20031;-68
2022/08/06 10:16:16;;;;;;;5.78;1.63;;;;;;;;;;5038571;28;20024;-67
2022/08/06 10:18:46;;;;;;;6.60;1.90;;;;;;;;;;5041037;28;20753;-67
2022/08/06 10:21:17;;;;;;;7.85;1.80;;;;;;;;;;5034866;28;20484;-67
2022/08/06 10:23:45;;;;;;;8.35;2.20;;;;;;;;;;5039399;28;20032;-66
2022/08/06 10:26:12;;;;;;;7.22;1.95;;;;;;;;;;5036744;28;20174;-64
2022/08/06 10:28:39;;;;;;;6.43;1.90;;;;;;;;;;5058318;28;20523;-65
2022/08/06 10:31:07;;;;;;;7.70;2.22;;;;;;;;;;5041279;28;20037;-65
2022/08/06 10:33:37;;;;;;;6.47;1.67;;;;;;;;;;5042858;28;20016;-65
2022/08/06 10:36:05;;;;;;;7.25;1.90;;;;;;;;;;5027383;28;20028;-65
2022/08/06 10:38:34;;;;;;;8.32;1.85;;;;;;;;;;5037053;28;20712;-65
2022/08/06 10:41:00;;;;;;;8.98;1.85;;;;;;;;;;5042113;28;20386;-65
2022/08/06 10:43:27;;;;;;;8.50;2.10;;;;;;;;;;5033940;28;20033;-67
2022/08/06 10:45:53;;;;;;;8.65;1.95;;;;;;;;;;5032765;28;20033;-65
2022/08/06 10:48:20;;;;;;;7.30;1.88;;;;;;;;;;5030613;28;20024;-65
2022/08/06 10:50:46;;;;;;;6.90;1.75;;;;;;;;;;5035739;28;20052;-65
2022/08/06 10:53:16;;;;;;;7.78;1.98;;;;;;;;;;5028861;28;20089;-65
2022/08/06 10:55:42;;;;;;;10.52;2.03;;;;;;;;;;5033333;28;20032;-65
2022/08/06 10:58:08;;;;;;;8.38;2.03;;;;;;;;;;5035489;28;20066;-65
2022/08/06 11:00:35;;;;;;;7.63;1.83;;;;;;;;;;5035658;28;20071;-65
2022/08/06 11:03:07;;;;;;;8.95;1.90;;;;;;;;;;5038466;28;20318;-65
2022/08/06 11:05:37;;;;;;;8.48;2.15;;;;;;;;;;5037277;28;20298;-65
2022/08/06 11:08:18;;;;;;;12.18;2.40;;;;;;;;;;5035571;28;20091;-66
2022/08/06 11:10:44;;;;;;;8.32;2.40;;;;;;;;;;5040093;28;20048;-67
2022/08/06 11:13:26;;;;;;;7.80;1.90;;;;;;;;;;5048545;28;20074;-66
2022/08/06 11:15:52;;;;;;;10.00;1.70;;;;;;;;;;5038373;28;20414;-67
2022/08/06 11:18:19;;;;;;;9.05;2.50;;;;;;;;;;5038908;28;20541;-68
2022/08/06 11:20:46;;;;;;;7.40;1.92;;;;;;;;;;5039140;28;20758;-69
2022/08/06 11:23:12;;;;;;;6.78;1.95;;;;;;;;;;5041370;28;20557;-64
2022/08/06 11:25:42;;;;;;;9.23;1.88;;;;;;;;;;5044503;28;20028;-68
2022/08/06 11:28:09;;;;;;;8.68;2.28;;;;;;;;;;5034659;28;20116;-67
2022/08/06 11:30:43;;;;;;;9.25;2.10;;;;;;;;;;5040333;28;20056;-67
2022/08/06 11:33:12;;;;;;;8.02;1.92;;;;;;;;;;5037635;28;20434;-66
2022/08/06 11:35:40;;;;;;;7.60;2.10;;;;;;;;;;5041798;28;20068;-65
2022/08/06 11:38:07;;;;;;;6.80;1.75;;;;;;;;;;5040610;28;20021;-66
2022/08/06 11:40:56;;;;;;;8.15;2.00;;;;;;;;;;5041814;28;20634;-65
2022/08/06 11:43:43;;;;;;;6.55;1.70;;;;;;;;;;5040483;28;20584;-66
2022/08/06 11:46:25;;;;;;;7.35;1.95;;;;;;;;;;5031092;28;20036;-66
2022/08/06 11:49:03;;;;;;;6.68;1.88;;;;;;;;;;5037253;28;20025;-65
2022/08/06 11:51:45;;;;;;;8.40;2.17;;;;;;;;;;5038256;28;20076;-65
2022/08/06 11:54:18;;;;;;;6.45;1.70;;;;;;;;;;5039254;28;20380;-65
2022/08/06 11:57:09;;;;;;;9.77;2.38;;;;;;;;;;5042284;28;20020;-64
2022/08/06 11:59:39;;;;;;;8.18;2.30;;;;;;;;;;5040321;28;20143;-64
2022/08/06 12:02:09;;;;;;;7.65;1.77;;;;;;;;;;5041246;28;20485;-65
2022/08/06 12:04:35;;;;;;;7.13;2.10;;;;;;;;;;5040789;28;20036;-65
2022/08/06 12:07:21;;;;;;;7.38;1.92;;;;;;;;;;5038079;28;20032;-64
2022/08/06 12:10:02;;;;;;;8.00;1.90;;;;;;;;;;5040677;28;20032;-64
2022/08/06 12:12:48;;;;;;;6.80;2.00;;;;;;;;;;5038866;28;20032;-65
2022/08/06 12:15:19;;;;;;;6.82;1.73;;;;;;;;;;5034369;28;20099;-64
2022/08/06 12:17:57;;;;;;;7.07;1.92;;;;;;;;;;5039825;28;20032;-64
2022/08/06 12:20:34;;;;;;;7.72;1.80;;;;;;;;;;5040015;28;20033;-63
2022/08/06 12:23:01;;;;;;;9.60;2.17;;;;;;;;;;5037791;28;20167;-65
2022/08/06 12:25:34;;;;;;;6.43;1.80;;;;;;;;;;5036539;28;20041;-65
2022/08/06 12:28:01;;;;;;;7.00;2.00;;;;;;;;;;5040764;28;20590;-64
2022/08/06 12:30:27;;;;;;;5.75;1.70;;;;;;;;;;5032629;28;20043;-65
2022/08/06 12:33:00;;;;;;;6.53;1.80;;;;;;;;;;5044317;28;20509;-64
2022/08/06 12:35:27;;;;;;;8.32;1.65;;;;;;;;;;5037344;28;20585;-64
2022/08/06 12:37:54;;;;;;;5.68;1.77;;;;;;;;;;5042009;28;20027;-64
2022/08/06 12:40:23;;;;;;;7.65;1.73;;;;;;;;;;5042868;28;20367;-65
2022/08/06 12:42:50;;;;;;;7.85;2.05;;;;;;;;;;5038200;28;20020;-64
2022/08/06 12:45:22;;;;;;;5.90;2.10;;;;;;;;;;5043710;28;20032;-65
2022/08/06 12:48:01;;;;;;;7.10;1.77;;;;;;;;;;5040280;28;20104;-64
2022/08/06 12:50:28;;;;;;;9.27;1.95;;;;;;;;;;5040419;28;20957;-64
2022/08/06 12:53:04;;;;;;;7.22;1.70;;;;;;;;;;5048816;28;20107;-67
2022/08/06 12:55:31;;;;;;;9.65;2.15;;;;;;;;;;5062766;28;20123;-65
2022/08/06 12:57:57;;;;;;;6.50;1.80;;;;;;;;;;5049178;28;20055;-66
2022/08/06 13:00:23;;;;;;;9.68;1.75;;;;;;;;;;5044977;28;20444;-64
2022/08/06 13:02:50;;;;;;;6.05;1.65;;;;;;;;;;5049825;28;20085;-66
2022/08/06 13:05:17;;;;;;;5.78;1.90;;;;;;;;;;5049520;28;20359;-66
2022/08/06 13:07:43;;;;;;;9.48;2.00;;;;;;;;;;5045988;28;20039;-66
2022/08/06 13:10:10;;;;;;;7.50;1.98;;;;;;;;;;5044869;28;20028;-69
2022/08/06 13:12:36;;;;;;;7.93;2.03;;;;;;;;;;5062211;28;20043;-66
2022/08/06 13:15:10;;;;;;;7.18;2.10;;;;;;;;;;5047217;28;20241;-67
2022/08/06 13:17:36;;;;;;;11.35;2.22;;;;;;;;;;5043335;28;20029;-68
2022/08/06 13:20:03;;;;;;;6.82;2.13;;;;;;;;;;5042991;28;20025;-66
2022/08/06 13:22:29;;;;;;;8.55;1.88;;;;;;;;;;5040345;28;20364;-68
2022/08/06 13:25:19;;;;;;;8.57;1.92;;;;;;;;;;5041118;28;20040;-66
2022/08/06 13:27:45;;;;;;;12.27;1.90;;;;;;;;;;5055003;28;20132;-67
2022/08/06 13:30:12;;;;;;;8.00;1.80;;;;;;;;;;5040542;28;20028;-66
2022/08/06 13:32:40;;;;;;;8.43;2.00;;;;;;;;;;5046096;28;20497;-66
2022/08/06 13:35:10;;;;;;;8.43;1.70;;;;;;;;;;5042262;28;20047;-64
2022/08/06 13:37:52;;;;;;;5.72;1.77;;;;;;;;;;5046442;28;20107;-68
2022/08/06 13:40:19;;;;;;;8.45;1.90;;;;;;;;;;5038705;28;20067;-66
2022/08/06 13:42:51;;;;;;;5.55;1.67;;;;;;;;;;5038886;28;20067;-69
2022/08/06 13:45:22;;;;;;;6.78;1.85;;;;;;;;;;5038555;28;20217;-65
2022/08/06 13:47:52;;;;;;;7.90;1.90;;;;;;;;;;5044243;28;20067;-67
2022/08/06 13:50:21;;;;;;;8.25;1.95;;;;;;;;;;5039593;28;20045;-65
2022/08/06 13:52:47;;;;;;;7.32;1.80;;;;;;;;;;5044104;28;20041;-64
2022/08/06 13:55:21;;;;;;;7.82;2.10;;;;;;;;;;5037698;28;20040;-70
2022/08/06 13:57:47;;;;;;;;;;;;;;;;;;5043304;28;20402;-69
2022/08/06 14:00:14;;;;;;;7.43;1.88;;;;;;;;;;5034944;28;19965;-68
2022/08/06 14:02:40;;;;;;;9.32;1.98;;;;;;;;;;5045782;28;20555;-67
2022/08/06 14:05:07;;;;;;;11.52;2.00;;;;;;;;;;5042077;28;20047;-65
2022/08/06 14:07:33;;;;;;;7.65;2.03;;;;;;;;;;5048852;28;20076;-66
2022/08/06 14:09:59;;;;;;;6.95;1.70;;;;;;;;;;5045720;28;20185;-69
2022/08/06 14:12:25;;;;;;;8.45;1.95;;;;;;;;;;5042747;28;20470;-70
2022/08/06 14:14:51;;;;;;;6.22;1.90;;;;;;;;;;5042479;28;20047;-68
2022/08/06 14:17:18;;;;;;;8.10;1.85;;;;;;;;;;5043191;28;20023;-68
2022/08/06 14:19:44;;;;;;;6.47;1.70;;;;;;;;;;5047007;28;20032;-69
2022/08/06 14:22:10;;;;;;;6.57;2.05;;;;;;;;;;5046049;28;20566;-68
2022/08/06 14:24:37;;;;;;;6.47;1.80;;;;;;;;;;5049847;28;20538;-67
2022/08/06 14:27:03;;;;;;;8.07;1.92;;;;;;;;;;5043945;28;20024;-65
2022/08/06 14:29:30;;;;;;;7.22;2.10;;;;;;;;;;5037652;28;20605;-68
2022/08/06 14:31:56;;;;;;;8.35;2.30;;;;;;;;;;5039249;28;20182;-70
2022/08/06 14:34:22;;;;;;;7.32;2.00;;;;;;;;;;5039233;28;21009;-68
2022/08/06 14:36:48;;;;;;;6.40;2.00;;;;;;;;;;5042497;28;20565;-68
2022/08/06 14:39:15;;;;;;;9.18;2.05;;;;;;;;;;5034654;28;20062;-68
2022/08/06 14:47:11;;;;;;;9.20;2.22;;;;;;;;;;5043702;28;21451;-69
2022/08/06 14:49:39;;;;;;;6.32;2.00;;;;;;;;;;5041049;28;20284;-69
2022/08/06 14:52:06;;;;;;;8.27;2.40;;;;;;;;;;5041343;28;20098;-70
2022/08/06 14:54:32;;;;;;;6.57;2.08;;;;;;;;;;5042869;28;20129;-68
2022/08/06 14:56:58;;;;;;;8.50;2.40;;;;;;;;;;5043107;28;20020;-69
2022/08/06 14:59:27;;;;;;;6.75;2.05;;;;;;;;;;5035335;28;20478;-69
2022/08/06 15:01:54;;;;;;;8.95;2.55;;;;;;;;;;5036648;28;20389;-68